createdAt,value
2019-02-24T00:00:44.318Z,14.40
2019-02-24T00:03:12.534Z,15.13
2019-02-24T00:05:41.077Z,13.13
2019-02-24T00:08:09.739Z,13.73
2019-02-24T00:10:37.843Z,13.87
2019-02-24T00:13:06.004Z,13.80
2019-02-24T00:15:34.753Z,13.90
2019-02-24T00:18:03.001Z,14.10
2019-02-24T00:20:31.080Z,13.03
2019-02-24T00:22:59.527Z,14.50
2019-02-24T00:25:27.627Z,13.17
2019-02-24T00:27:55.761Z,13.63
2019-02-24T00:30:23.995Z,13.43
2019-02-24T00:32:52.081Z,14.63
2019-02-24T00:35:20.570Z,14.50
2019-02-24T00:37:48.949Z,14.07
2019-02-24T00:40:17.734Z,15.10
2019-02-24T00:42:46.209Z,13.83
2019-02-24T00:45:14.508Z,14.07
2019-02-24T00:47:42.625Z,14.13
2019-02-24T00:50:10.811Z,13.67
2019-02-24T00:52:38.864Z,14.23
2019-02-24T00:55:07.142Z,13.67
2019-02-24T00:57:35.217Z,15.23
2019-02-24T01:00:04.264Z,14.27
2019-02-24T01:02:32.653Z,13.80
2019-02-24T01:05:00.827Z,13.30
2019-02-24T01:07:28.990Z,15.53
2019-02-24T01:09:57.389Z,14.80
2019-02-24T01:12:25.460Z,15.03
2019-02-24T01:14:53.542Z,14.30
2019-02-24T01:17:21.628Z,15.13
2019-02-24T01:19:49.930Z,14.90
2019-02-24T01:22:18.135Z,15.60
2019-02-24T01:24:46.253Z,13.80
2019-02-24T01:27:14.839Z,14.30
2019-02-24T01:29:42.910Z,15.80
2019-02-24T01:32:11.088Z,15.10
2019-02-24T01:34:39.348Z,14.13
2019-02-24T01:37:07.427Z,14.60
2019-02-24T01:39:35.556Z,14.37
2019-02-24T01:42:04.042Z,14.50
2019-02-24T01:44:32.176Z,15.10
2019-02-24T01:47:00.353Z,16.27
2019-02-24T01:49:28.719Z,15.90
2019-02-24T01:51:57.194Z,15.47
2019-02-24T01:54:25.665Z,15.63
2019-02-24T01:56:53.861Z,14.37
2019-02-24T01:59:22.128Z,16.47
2019-02-24T02:01:50.246Z,14.47
2019-02-24T02:04:18.550Z,16.67
2019-02-24T02:06:46.918Z,15.60
2019-02-24T02:09:15.087Z,15.53
2019-02-24T02:11:43.320Z,15.73
2019-02-24T02:14:11.403Z,15.70
2019-02-24T02:16:39.518Z,15.30
2019-02-24T02:19:07.582Z,15.80
2019-02-24T02:21:35.836Z,16.17
2019-02-24T02:24:04.062Z,15.23
2019-02-24T02:26:32.241Z,16.63
2019-02-24T02:29:00.589Z,16.33
2019-02-24T02:31:28.637Z,17.07
2019-02-24T02:33:56.796Z,16.50
2019-02-24T02:36:24.915Z,17.77
2019-02-24T02:38:53.612Z,16.60
2019-02-24T02:41:21.760Z,16.47
2019-02-24T02:43:49.842Z,17.03
2019-02-24T02:46:18.175Z,17.30
2019-02-24T02:48:46.330Z,16.60
2019-02-24T02:51:14.376Z,16.77
2019-02-24T02:53:42.777Z,16.80
2019-02-24T02:56:13.028Z,16.43
2019-02-24T02:58:41.029Z,15.87
2019-02-24T03:01:09.218Z,17.40
2019-02-24T03:03:38.121Z,17.80
2019-02-24T03:06:44.765Z,18.30
2019-02-24T03:09:13.165Z,16.60
2019-02-24T03:11:41.712Z,16.43
2019-02-24T03:14:09.775Z,17.13
2019-02-24T03:16:37.892Z,16.97
2019-02-24T03:19:06.000Z,17.50
2019-02-24T03:21:34.099Z,17.23
2019-02-24T03:24:02.228Z,17.17
2019-02-24T03:26:30.399Z,17.10
2019-02-24T03:29:04.129Z,18.43
2019-02-24T03:31:28.719Z,17.10
2019-02-24T03:33:57.005Z,17.30
2019-02-24T03:36:25.096Z,17.13
2019-02-24T03:38:53.805Z,16.70
2019-02-24T03:41:22.026Z,17.40
2019-02-24T03:43:50.186Z,17.23
2019-02-24T03:46:18.767Z,18.30
2019-02-24T03:48:46.959Z,16.97
2019-02-24T03:51:15.031Z,16.47
2019-02-24T03:53:43.433Z,16.93
2019-02-24T03:56:11.534Z,16.67
2019-02-24T03:58:39.666Z,18.17
2019-02-24T04:01:07.767Z,17.83
2019-02-24T04:03:36.371Z,16.87
2019-02-24T04:06:04.473Z,17.77
2019-02-24T04:08:32.582Z,17.67
2019-02-24T04:11:01.260Z,17.27
2019-02-24T04:13:29.328Z,17.40
2019-02-24T04:15:57.536Z,18.43
2019-02-24T04:18:25.891Z,17.37
2019-02-24T04:20:53.966Z,18.20
2019-02-24T04:23:22.423Z,17.40
2019-02-24T04:25:50.771Z,18.20
2019-02-24T04:28:18.849Z,17.53
2019-02-24T04:30:47.048Z,17.17
2019-02-24T04:33:15.143Z,17.40
2019-02-24T04:35:43.276Z,16.80
2019-02-24T04:38:11.312Z,18.37
2019-02-24T04:40:39.514Z,17.47
2019-02-24T04:43:07.732Z,18.03
2019-02-24T04:45:35.835Z,17.83
2019-02-24T04:48:03.996Z,17.97
2019-02-24T04:50:32.356Z,17.40
2019-02-24T04:53:00.428Z,16.80
2019-02-24T04:55:28.644Z,17.50
2019-02-24T04:57:56.782Z,16.43
2019-02-24T05:00:24.915Z,18.27
2019-02-24T05:02:53.720Z,17.97
2019-02-24T05:05:21.829Z,17.73
2019-02-24T05:07:50.043Z,17.37
2019-02-24T05:10:18.368Z,17.57
2019-02-24T05:12:46.517Z,19.27
2019-02-24T05:15:14.568Z,17.90
2019-02-24T05:17:43.013Z,17.93
2019-02-24T05:20:11.105Z,17.60
2019-02-24T05:22:39.190Z,18.07
2019-02-24T05:25:08.074Z,18.27
2019-02-24T05:27:36.189Z,18.13
2019-02-24T05:30:04.623Z,17.97
2019-02-24T05:32:32.892Z,19.40
2019-02-24T05:35:02.038Z,16.53
2019-02-24T05:37:30.188Z,17.57
2019-02-24T05:39:58.320Z,18.43
2019-02-24T05:42:26.681Z,17.63
2019-02-24T05:44:54.887Z,18.63
2019-02-24T05:47:23.061Z,17.77
2019-02-24T05:49:52.010Z,18.23
2019-02-24T05:52:20.075Z,18.00
2019-02-24T05:54:48.204Z,17.97
2019-02-24T05:57:16.631Z,18.43
2019-02-24T05:59:54.728Z,19.50
2019-02-24T06:02:15.318Z,18.47
2019-02-24T06:04:43.695Z,18.87
2019-02-24T06:07:12.156Z,20.63
2019-02-24T06:09:40.277Z,18.97
2019-02-24T06:12:08.787Z,19.23
2019-02-24T06:14:36.904Z,19.10
2019-02-24T06:17:05.030Z,18.77
2019-02-24T06:19:33.348Z,20.20
2019-02-24T06:22:01.594Z,20.37
2019-02-24T06:24:29.707Z,19.87
2019-02-24T06:26:57.836Z,18.80
2019-02-24T06:29:26.352Z,17.93
2019-02-24T06:31:54.421Z,17.67
2019-02-24T06:34:22.598Z,19.10
2019-02-24T06:36:51.949Z,18.43
2019-02-24T06:39:20.372Z,18.07
2019-02-24T06:41:48.514Z,18.90
2019-02-24T06:44:16.947Z,19.97
2019-02-24T06:46:45.119Z,19.23
2019-02-24T06:49:13.531Z,18.50
2019-02-24T06:51:42.003Z,18.77
2019-02-24T06:54:10.703Z,19.23
2019-02-24T06:56:38.840Z,18.50
2019-02-24T06:59:07.872Z,18.10
2019-02-24T07:01:36.408Z,17.70
2019-02-24T07:04:04.522Z,19.40
2019-02-24T07:06:32.861Z,18.57
2019-02-24T07:09:01.323Z,18.97
2019-02-24T07:11:29.375Z,19.23
2019-02-24T07:13:57.517Z,19.30
2019-02-24T07:16:25.618Z,18.93
2019-02-24T07:18:54.001Z,19.43
2019-02-24T07:21:22.683Z,19.00
2019-02-24T07:23:50.966Z,19.37
2019-02-24T07:26:19.031Z,20.23
2019-02-24T07:28:48.090Z,20.27
2019-02-24T07:31:16.388Z,19.03
2019-02-24T07:33:44.485Z,19.57
2019-02-24T07:36:12.589Z,19.03
2019-02-24T07:38:40.675Z,19.33
2019-02-24T07:41:09.301Z,19.90
2019-02-24T07:43:38.385Z,18.73
2019-02-24T07:46:06.573Z,20.30
2019-02-24T07:48:35.144Z,19.90
2019-02-24T07:51:03.236Z,18.43
2019-02-24T07:53:31.364Z,18.83
2019-02-24T07:55:59.864Z,19.03
2019-02-24T07:58:28.538Z,19.37
2019-02-24T08:00:56.604Z,20.10
2019-02-24T08:03:25.019Z,18.87
2019-02-24T08:05:53.360Z,21.07
2019-02-24T08:08:21.469Z,19.60
2019-02-24T08:10:49.863Z,19.13
2019-02-24T08:13:17.919Z,17.93
2019-02-24T08:15:46.056Z,19.07
2019-02-24T08:18:14.836Z,19.90
2019-02-24T08:20:42.971Z,18.33
2019-02-24T08:23:11.140Z,18.47
2019-02-24T08:25:39.307Z,19.37
2019-02-24T08:28:07.417Z,18.93
2019-02-24T08:30:41.520Z,18.30
2019-02-24T08:33:06.025Z,19.07
2019-02-24T08:35:34.096Z,18.80
2019-02-24T08:38:02.184Z,20.00
2019-02-24T08:40:30.631Z,18.80
2019-02-24T08:42:58.790Z,18.60
2019-02-24T08:45:29.572Z,17.97
2019-02-24T08:47:57.662Z,18.87
2019-02-24T08:50:25.901Z,18.13
2019-02-24T08:52:56.910Z,17.70
2019-02-24T08:55:25.049Z,18.00
2019-02-24T08:57:53.360Z,19.23
2019-02-24T09:00:21.799Z,17.47
2019-02-24T09:02:50.197Z,18.40
2019-02-24T09:05:18.285Z,18.03
2019-02-24T09:07:46.686Z,17.70
2019-02-24T09:10:15.088Z,18.43
2019-02-24T09:12:43.614Z,18.33
2019-02-24T09:15:11.729Z,18.23
2019-02-24T09:17:39.844Z,18.37
2019-02-24T09:20:08.873Z,17.63
2019-02-24T09:22:36.958Z,18.00
2019-02-24T09:25:05.310Z,18.33
2019-02-24T09:27:33.422Z,16.60
2019-02-24T09:30:01.712Z,16.53
2019-02-24T09:32:29.846Z,17.57
2019-02-24T09:34:57.950Z,17.23
2019-02-24T09:37:26.499Z,17.03
2019-02-24T09:39:54.919Z,16.50
2019-02-24T09:42:22.963Z,17.13
2019-02-24T09:44:51.201Z,16.80
2019-02-24T09:47:19.322Z,16.90
2019-02-24T09:49:47.604Z,16.03
2019-02-24T09:52:15.713Z,16.67
2019-02-24T09:54:44.131Z,15.73
2019-02-24T09:57:12.233Z,15.43
2019-02-24T09:59:40.854Z,15.47
2019-02-24T10:02:09.018Z,14.67
2019-02-24T10:04:37.102Z,14.80
2019-02-24T10:07:05.176Z,16.50
2019-02-24T10:09:33.575Z,14.97
2019-02-24T10:12:01.766Z,16.03
2019-02-24T10:14:30.150Z,16.40
2019-02-24T10:16:58.230Z,15.40
2019-02-24T10:19:26.511Z,15.93
2019-02-24T10:21:54.692Z,15.60
2019-02-24T10:24:22.726Z,14.83
2019-02-24T10:26:51.415Z,16.03
2019-02-24T10:29:19.627Z,15.77
2019-02-24T10:31:47.903Z,15.30
2019-02-24T10:34:16.246Z,15.20
2019-02-24T10:36:44.710Z,15.27
2019-02-24T10:39:13.150Z,14.73
2019-02-24T10:41:41.335Z,14.73
2019-02-24T10:44:09.857Z,15.40
2019-02-24T10:46:37.986Z,13.93
2019-02-24T10:49:06.580Z,14.17
2019-02-24T10:51:34.979Z,13.80
2019-02-24T10:54:03.157Z,14.40
2019-02-24T10:56:31.337Z,14.00
2019-02-24T10:58:59.570Z,13.20
2019-02-24T11:01:29.846Z,14.53
2019-02-24T11:03:59.951Z,13.40
2019-02-24T11:06:28.019Z,12.73
2019-02-24T11:08:59.017Z,13.27
2019-02-24T11:11:27.594Z,14.17
2019-02-24T11:13:56.053Z,13.90
2019-02-24T11:16:24.480Z,16.90
2019-02-24T11:18:52.605Z,14.63
2019-02-24T11:21:20.781Z,15.67
2019-02-24T11:23:49.368Z,14.67
2019-02-24T11:26:17.570Z,14.23
2019-02-24T11:28:45.756Z,14.37
2019-02-24T11:31:14.150Z,14.10
2019-02-24T11:33:42.216Z,14.00
2019-02-24T11:36:10.432Z,14.07
2019-02-24T11:38:38.668Z,14.67
2019-02-24T11:41:06.847Z,12.83
2019-02-24T11:43:34.923Z,12.90
2019-02-24T11:46:03.958Z,12.33
2019-02-24T11:48:32.097Z,12.03
2019-02-24T11:51:00.283Z,12.67
2019-02-24T11:53:28.503Z,13.03
2019-02-24T11:55:56.665Z,11.53
2019-02-24T11:58:24.753Z,10.07
2019-02-24T12:00:52.932Z,10.73
2019-02-24T12:03:21.027Z,11.23
2019-02-24T12:05:49.509Z,11.93
2019-02-24T12:08:17.596Z,11.23
2019-02-24T12:10:45.685Z,11.47
2019-02-24T12:13:13.798Z,11.23
2019-02-24T12:15:42.317Z,10.00
2019-02-24T12:18:10.465Z,9.90
2019-02-24T12:20:38.707Z,9.73
2019-02-24T12:23:06.796Z,9.77
2019-02-24T12:25:34.881Z,10.60
2019-02-24T12:28:03.014Z,10.07
2019-02-24T12:30:31.120Z,10.17
2019-02-24T12:32:59.900Z,10.00
2019-02-24T12:35:28.135Z,10.23
2019-02-24T12:37:56.357Z,10.43
2019-02-24T12:40:24.558Z,10.80
2019-02-24T12:42:54.539Z,10.57
2019-02-24T12:45:22.864Z,12.50
2019-02-24T12:47:51.252Z,11.60
2019-02-24T12:50:20.488Z,9.67
2019-02-24T12:52:48.586Z,9.53
2019-02-24T12:55:16.660Z,9.60
2019-02-24T12:57:44.889Z,10.50
2019-02-24T13:00:16.635Z,11.83
2019-02-24T13:02:44.814Z,12.43
2019-02-24T13:05:13.206Z,11.77
2019-02-24T13:07:41.287Z,11.47
2019-02-24T13:10:11.769Z,11.47
2019-02-24T13:12:39.837Z,10.20
2019-02-24T13:15:08.495Z,11.47
2019-02-24T13:17:36.918Z,10.60
2019-02-24T13:20:06.491Z,11.13
2019-02-24T13:22:35.265Z,10.80
2019-02-24T13:25:03.485Z,10.97
2019-02-24T13:27:32.109Z,11.13
2019-02-24T13:30:00.296Z,10.43
2019-02-24T13:32:28.984Z,11.17
2019-02-24T13:34:57.040Z,13.17
2019-02-24T13:37:25.131Z,13.10
2019-02-24T13:39:54.099Z,12.80
2019-02-24T13:42:22.211Z,12.30
2019-02-24T13:44:50.600Z,11.73
2019-02-24T13:47:18.818Z,12.27
2019-02-24T13:49:47.888Z,11.67
2019-02-24T13:52:16.059Z,12.20
2019-02-24T13:54:44.191Z,12.27
2019-02-24T13:57:12.789Z,12.47
2019-02-24T13:59:41.781Z,11.80
2019-02-24T14:02:10.596Z,11.30
2019-02-24T14:04:38.702Z,11.50
2019-02-24T14:07:06.874Z,11.27
2019-02-24T14:09:35.095Z,11.13
2019-02-24T14:12:03.483Z,11.07
2019-02-24T14:14:31.643Z,11.03
2019-02-24T14:16:59.787Z,9.83
2019-02-24T14:19:28.168Z,11.13
2019-02-24T14:21:56.297Z,10.17
2019-02-24T14:24:24.394Z,11.23
2019-02-24T14:26:54.321Z,10.03
2019-02-24T14:29:22.448Z,10.47
2019-02-24T14:31:50.652Z,10.80
2019-02-24T14:34:18.769Z,10.80
2019-02-24T14:36:46.857Z,10.27
2019-02-24T14:39:15.537Z,10.63
2019-02-24T14:41:43.689Z,11.13
2019-02-24T14:44:12.177Z,10.50
2019-02-24T14:46:40.266Z,10.00
2019-02-24T14:49:08.529Z,10.77
2019-02-24T14:51:36.614Z,11.23
2019-02-24T14:54:04.766Z,9.93
2019-02-24T14:56:32.918Z,10.73
2019-02-24T14:59:01.109Z,11.13
2019-02-24T15:01:29.184Z,9.53
2019-02-24T15:03:57.593Z,10.67
2019-02-24T15:06:25.977Z,10.20
2019-02-24T15:08:54.090Z,9.90
2019-02-24T15:11:22.180Z,10.50
2019-02-24T15:13:50.263Z,9.73
2019-02-24T15:16:18.394Z,10.27
2019-02-24T15:18:46.477Z,10.00
2019-02-24T15:21:14.597Z,10.50
2019-02-24T15:23:43.141Z,10.90
2019-02-24T15:26:11.225Z,10.37
2019-02-24T15:28:39.303Z,10.63
2019-02-24T15:31:07.778Z,10.07
2019-02-24T15:33:35.827Z,11.17
2019-02-24T15:36:03.907Z,12.40
2019-02-24T15:38:32.097Z,11.30
2019-02-24T15:41:00.176Z,12.13
2019-02-24T15:43:28.400Z,10.90
2019-02-24T15:45:56.548Z,11.00
2019-02-24T15:48:24.637Z,12.03
2019-02-24T15:50:53.028Z,10.73
2019-02-24T15:53:21.571Z,11.13
2019-02-24T15:55:49.711Z,12.17
2019-02-24T15:58:18.031Z,11.70
2019-02-24T16:00:46.371Z,11.97
2019-02-24T16:03:14.594Z,11.90
2019-02-24T16:05:42.672Z,12.60
2019-02-24T16:08:11.484Z,12.10
2019-02-24T16:10:39.589Z,10.57
2019-02-24T16:13:16.482Z,11.60
2019-02-24T16:15:37.724Z,11.43
2019-02-24T16:18:05.871Z,11.40
2019-02-24T16:20:34.125Z,11.83
2019-02-24T16:23:02.216Z,12.20
2019-02-24T16:25:30.395Z,11.80
2019-02-24T16:27:58.898Z,12.00
2019-02-24T16:30:26.999Z,11.63
2019-02-24T16:32:55.141Z,13.23
2019-02-24T16:35:23.271Z,14.47
2019-02-24T16:37:51.312Z,12.53
2019-02-24T16:40:19.483Z,12.67
2019-02-24T16:42:47.579Z,13.70
2019-02-24T16:45:17.500Z,13.40
2019-02-24T16:47:45.574Z,13.40
2019-02-24T16:50:15.086Z,13.60
2019-02-24T16:52:43.492Z,13.30
2019-02-24T16:55:12.419Z,13.33
2019-02-24T16:57:40.637Z,12.97
2019-02-24T17:00:15.481Z,13.67
2019-02-24T17:02:43.582Z,14.03
2019-02-24T17:05:12.472Z,13.47
2019-02-24T17:07:41.770Z,14.93
2019-02-24T17:10:12.388Z,13.73
2019-02-24T17:12:40.565Z,14.97
2019-02-24T17:15:10.734Z,14.53
2019-02-24T17:17:38.902Z,14.70
2019-02-24T17:20:10.061Z,18.97
2019-02-24T17:22:38.456Z,15.63
2019-02-24T17:25:07.013Z,14.33
2019-02-24T17:27:35.101Z,16.67
2019-02-24T17:30:03.635Z,15.53
2019-02-24T17:32:32.269Z,15.20
2019-02-24T17:35:00.434Z,15.63
2019-02-24T17:37:28.528Z,15.20
2019-02-24T17:39:56.629Z,15.07
2019-02-24T17:42:24.858Z,14.20
2019-02-24T17:44:53.083Z,15.73
2019-02-24T17:47:21.157Z,16.07
2019-02-24T17:49:51.055Z,18.67
2019-02-24T17:52:19.460Z,19.43
2019-02-24T17:54:47.540Z,18.57
2019-02-24T17:57:15.737Z,20.10
2019-02-24T17:59:43.854Z,21.63
2019-02-24T18:02:11.943Z,20.37
2019-02-24T18:04:40.058Z,17.10
2019-02-24T18:07:09.080Z,15.97
2019-02-24T18:09:37.827Z,17.13
2019-02-24T18:12:05.917Z,16.60
2019-02-24T18:14:34.047Z,15.73
2019-02-24T18:17:02.118Z,16.30
2019-02-24T18:19:30.278Z,16.33
2019-02-24T18:21:58.463Z,17.07
2019-02-24T18:24:26.565Z,16.93
2019-02-24T18:26:54.912Z,16.60
2019-02-24T18:29:23.034Z,16.40
2019-02-24T18:31:51.231Z,16.77
2019-02-24T18:34:19.376Z,16.60
2019-02-24T18:36:47.432Z,16.87
2019-02-24T18:39:15.624Z,16.13
2019-02-24T18:41:43.693Z,16.73
2019-02-24T18:44:11.792Z,14.97
2019-02-24T18:46:39.982Z,15.73
2019-02-24T18:49:09.273Z,15.57
2019-02-24T18:51:37.429Z,15.47
2019-02-24T18:54:05.599Z,16.57
2019-02-24T18:56:33.711Z,17.03
2019-02-24T18:59:01.856Z,16.67
2019-02-24T19:01:29.999Z,16.37
2019-02-24T19:03:58.376Z,15.67
2019-02-24T19:06:27.381Z,17.37
2019-02-24T19:08:55.452Z,16.97
2019-02-24T19:11:24.039Z,16.30
2019-02-24T19:13:52.104Z,16.37
2019-02-24T19:16:20.344Z,16.43
2019-02-24T19:18:48.430Z,15.50
2019-02-24T19:21:16.856Z,14.83
2019-02-24T19:23:45.303Z,16.10
2019-02-24T19:26:13.440Z,16.13
2019-02-24T19:28:41.539Z,15.33
2019-02-24T19:31:09.753Z,15.17
2019-02-24T19:33:37.929Z,15.63
2019-02-24T19:36:06.112Z,15.67
2019-02-24T19:38:34.465Z,14.70
2019-02-24T19:41:02.566Z,15.03
2019-02-24T19:43:30.665Z,15.27
2019-02-24T19:45:58.805Z,14.57
2019-02-24T19:48:26.932Z,15.23
2019-02-24T19:50:55.158Z,14.70
2019-02-24T19:53:23.207Z,14.97
2019-02-24T19:55:51.321Z,15.23
2019-02-24T19:58:19.431Z,14.87
2019-02-24T20:00:47.620Z,15.37
2019-02-24T20:03:15.676Z,14.43
2019-02-24T20:05:43.767Z,14.87
2019-02-24T20:08:12.060Z,16.40
2019-02-24T20:10:40.357Z,15.27
2019-02-24T20:13:08.495Z,15.00
2019-02-24T20:15:36.593Z,15.00
2019-02-24T20:18:04.672Z,16.00
2019-02-24T20:20:33.262Z,16.17
2019-02-24T20:23:02.157Z,14.83
2019-02-24T20:25:30.741Z,16.63
2019-02-24T20:27:59.088Z,15.73
2019-02-24T20:30:27.209Z,16.33
2019-02-24T20:32:55.275Z,16.10
2019-02-24T20:35:23.436Z,15.87
2019-02-24T20:37:51.757Z,15.57
2019-02-24T20:40:19.921Z,14.90
2019-02-24T20:42:47.979Z,16.37
2019-02-24T20:45:18.150Z,15.80
2019-02-24T20:47:46.222Z,17.03
2019-02-24T20:50:16.160Z,16.10
2019-02-24T20:52:44.325Z,17.03
2019-02-24T20:55:12.696Z,16.30
2019-02-24T20:57:40.980Z,16.80
2019-02-24T21:00:17.754Z,17.00
2019-02-24T21:02:45.980Z,16.30
2019-02-24T21:05:14.453Z,16.60
2019-02-24T21:07:42.763Z,17.03
2019-02-24T21:10:11.713Z,18.07
2019-02-24T21:12:41.355Z,17.80
2019-02-24T21:15:11.509Z,18.13
2019-02-24T21:17:39.734Z,19.07
2019-02-24T21:20:14.957Z,18.03
2019-02-24T21:22:43.694Z,19.17
2019-02-24T21:25:12.918Z,20.03
2019-02-24T21:27:41.108Z,19.20
2019-02-24T21:30:12.255Z,20.67
2019-02-24T21:32:40.449Z,20.10
2019-02-24T21:35:08.697Z,19.97
2019-02-24T21:37:37.077Z,19.93
2019-02-24T21:40:05.611Z,19.13
2019-02-24T21:42:33.740Z,19.20
2019-02-24T21:45:02.243Z,18.77
2019-02-24T21:47:30.369Z,19.20
2019-02-24T21:49:58.524Z,19.10
2019-02-24T21:52:26.966Z,19.20
2019-02-24T21:54:55.072Z,20.17
2019-02-24T21:57:23.168Z,19.17
2019-02-24T21:59:51.539Z,20.67
2019-02-24T22:02:19.996Z,21.17
2019-02-24T22:04:48.390Z,19.60
2019-02-24T22:07:16.622Z,20.53
2019-02-24T22:09:44.709Z,21.00
2019-02-24T22:12:12.830Z,19.60
2019-02-24T22:14:41.003Z,19.30
2019-02-24T22:17:09.084Z,20.53
2019-02-24T22:19:37.170Z,20.47
2019-02-24T22:22:05.296Z,19.97
2019-02-24T22:24:33.385Z,18.93
2019-02-24T22:27:01.559Z,18.53
2019-02-24T22:29:29.665Z,18.87
2019-02-24T22:31:57.751Z,17.57
2019-02-24T22:34:26.140Z,18.73
2019-02-24T22:36:54.524Z,19.10
2019-02-24T22:39:23.472Z,19.70
2019-02-24T22:41:52.092Z,19.87
2019-02-24T22:44:20.181Z,18.40
2019-02-24T22:46:48.382Z,17.30
2019-02-24T22:49:16.489Z,17.50
2019-02-24T22:51:45.260Z,19.27
2019-02-24T22:54:13.358Z,18.77
2019-02-24T22:56:41.832Z,18.87
2019-02-24T22:59:09.928Z,18.50
2019-02-24T23:01:39.636Z,17.40
2019-02-24T23:04:10.973Z,19.17
2019-02-24T23:06:39.330Z,18.40
2019-02-24T23:09:15.045Z,18.10
2019-02-24T23:11:43.177Z,18.80
2019-02-24T23:14:11.614Z,18.67
2019-02-24T23:16:39.725Z,18.83
2019-02-24T23:19:07.843Z,19.40
2019-02-24T23:21:35.924Z,18.00
2019-02-24T23:24:04.580Z,19.10
2019-02-24T23:26:33.911Z,19.53
2019-02-24T23:29:02.344Z,20.90
2019-02-24T23:31:30.500Z,21.30
2019-02-24T23:33:59.056Z,21.23
2019-02-24T23:36:27.135Z,20.43
2019-02-24T23:38:55.348Z,20.67
2019-02-24T23:41:23.536Z,19.27
2019-02-24T23:43:51.649Z,19.63
2019-02-24T23:46:20.061Z,19.67
2019-02-24T23:48:48.529Z,19.37
2019-02-24T23:51:16.822Z,18.87
2019-02-24T23:53:44.986Z,21.77
2019-02-24T23:56:13.199Z,22.73
2019-02-24T23:58:41.780Z,20.27
